Time;durP1;ratioP1;P1;durP2;ratioP2;P2;SDS_P1;SDS_P2;PMS_P1;PMS_P2;Temp;Humidity;BMP_temperature;BMP_pressure;BME280_temperature;BME280_humidity;BME280_pressure;Samples;Min_cycle;Max_cycle;Signal;HPM_P1;HPM_P2
2023/09/01 00:02:52;;;;;;;15.52;4.72;;;;;;;9.83;100.00;101141.59;10349404;28;20042;-66
2023/09/01 00:07:53;;;;;;;6.65;3.08;;;;;;;9.74;100.00;101149.38;10350904;28;20109;-66
2023/09/01 00:12:53;;;;;;;6.13;3.22;;;;;;;9.68;100.00;101144.84;10352493;28;20042;-66
2023/09/01 00:17:54;;;;;;;6.63;2.78;;;;;;;9.69;100.00;101155.63;10356946;28;20033;-66
2023/09/01 00:22:55;;;;;;;5.38;2.83;;;;;;;9.65;100.00;101154.44;10378379;28;20038;-67
2023/09/01 00:27:55;;;;;;;6.55;2.40;;;;;;;9.58;100.00;101148.22;10378623;28;20053;-67
2023/09/01 00:32:56;;;;;;;6.75;2.80;;;;;;;9.58;100.00;101153.72;10386918;28;20411;-67
2023/09/01 00:37:57;;;;;;;5.18;2.75;;;;;;;9.50;100.00;101154.91;10380911;28;20095;-67
2023/09/01 00:42:57;;;;;;;4.93;2.55;;;;;;;9.42;100.00;101158.00;10380778;28;20186;-66
2023/09/01 00:47:58;;;;;;;5.13;2.63;;;;;;;9.42;100.00;101157.19;10380364;28;20041;-67
2023/09/01 00:53:00;;;;;;;5.50;2.72;;;;;;;9.37;100.00;101146.91;10384879;28;20049;-66
2023/09/01 00:58:01;;;;;;;5.38;2.83;;;;;;;9.04;100.00;101114.56;10376899;28;20048;-66
2023/09/01 01:03:03;;;;;;;5.78;2.55;;;;;;;9.24;100.00;101148.00;10360511;28;20038;-67
2023/09/01 01:08:32;;;;;;;4.75;2.70;;;;;;;9.17;100.00;101140.94;10378282;28;20041;-67
2023/09/01 01:13:35;;;;;;;11.27;3.15;;;;;;;9.06;100.00;101140.69;10353427;28;20058;-67
2023/09/01 01:18:36;;;;;;;6.25;2.28;;;;;;;8.90;100.00;101141.41;10382970;28;20038;-66
2023/09/01 01:23:36;;;;;;;8.25;2.50;;;;;;;8.88;100.00;101138.06;10360086;28;20151;-66
2023/09/01 01:28:37;;;;;;;5.22;2.95;;;;;;;8.88;100.00;101151.78;10321471;28;20041;-67
2023/09/01 01:33:54;;;;;;;4.10;2.83;;;;;;;8.94;100.00;101159.06;10361534;28;20390;-65
2023/09/01 01:39:05;;;;;;;6.72;3.38;;;;;;;8.95;100.00;101155.28;10377477;28;20053;-67
2023/09/01 01:44:06;;;;;;;4.40;2.75;;;;;;;8.96;100.00;101148.69;10420376;28;20045;-66
2023/09/01 01:49:08;;;;;;;7.85;3.67;;;;;;;8.93;100.00;101149.19;10421915;28;20056;-66
2023/09/01 01:54:09;;;;;;;5.40;2.97;;;;;;;8.86;100.00;101148.44;10434842;28;20042;-66
2023/09/01 01:59:09;;;;;;;5.22;3.20;;;;;;;8.86;100.00;101162.16;10441844;28;20869;-66
2023/09/01 02:04:10;;;;;;;11.32;3.63;;;;;;;8.78;100.00;101159.75;10433432;28;20045;-66
2023/09/01 02:09:11;;;;;;;7.35;3.22;;;;;;;8.79;100.00;101161.44;10439970;28;20041;-67
2023/09/01 02:14:12;;;;;;;4.90;2.67;;;;;;;8.79;100.00;101156.78;10435040;28;20034;-67
2023/09/01 02:19:12;;;;;;;7.88;2.88;;;;;;;8.79;100.00;101154.03;10418847;28;20046;-67
2023/09/01 02:24:13;;;;;;;6.60;3.47;;;;;;;8.71;100.00;101148.88;10439637;28;20053;-66
2023/09/01 02:29:13;;;;;;;4.55;2.78;;;;;;;8.66;100.00;101149.59;10434505;28;20386;-66
2023/09/01 02:34:14;;;;;;;6.45;3.33;;;;;;;8.58;100.00;101155.44;10437159;28;20059;-67
2023/09/01 02:39:16;;;;;;;6.10;3.22;;;;;;;8.48;100.00;101155.16;10435929;28;20072;-66
2023/09/01 02:44:17;;;;;;;6.18;3.50;;;;;;;8.53;100.00;101157.19;10417913;28;20041;-66
2023/09/01 02:49:17;;;;;;;6.20;3.40;;;;;;;8.53;100.00;101154.44;10436227;28;20472;-67
2023/09/01 02:54:18;;;;;;;5.97;3.63;;;;;;;8.57;100.00;101148.25;10403769;28;20041;-66
2023/09/01 02:59:18;;;;;;;6.85;3.33;;;;;;;8.52;100.00;101142.63;10434905;28;20037;-67
2023/09/01 03:04:19;;;;;;;3.88;2.60;;;;;;;8.52;100.00;101150.03;10404122;28;20040;-67
2023/09/01 03:09:20;;;;;;;6.05;2.72;;;;;;;8.48;100.00;101150.50;10430946;28;20041;-66
2023/09/01 03:14:21;;;;;;;6.60;3.22;;;;;;;8.51;100.00;101159.31;10398887;28;20543;-68
2023/09/01 03:19:21;;;;;;;5.38;3.15;;;;;;;8.50;100.00;101157.66;10438858;28;20135;-67
2023/09/01 03:24:22;;;;;;;5.93;3.67;;;;;;;8.49;100.00;101156.81;10412988;28;20045;-66
2023/09/01 03:29:22;;;;;;;11.82;4.05;;;;;;;8.53;100.00;101149.78;10421076;28;20052;-66
2023/09/01 03:34:23;;;;;;;6.70;4.30;;;;;;;8.51;100.00;101156.59;10431585;28;20060;-66
2023/09/01 03:39:24;;;;;;;9.27;3.90;;;;;;;8.46;100.00;101157.28;10419498;28;20052;-67
2023/09/01 03:44:24;;;;;;;12.57;3.83;;;;;;;8.37;100.00;101153.16;10437708;28;20046;-66
2023/09/01 03:49:26;;;;;;;7.13;3.10;;;;;;;8.35;100.00;101147.06;10443110;28;20033;-66
2023/09/01 03:54:27;;;;;;;9.05;4.00;;;;;;;8.38;100.00;101146.63;10442686;28;20048;-66
2023/09/01 03:59:27;;;;;;;9.38;3.25;;;;;;;8.29;100.00;101152.44;10425043;28;20400;-67
2023/09/01 04:04:28;;;;;;;7.18;3.17;;;;;;;8.32;100.00;101155.78;10425791;28;20038;-66
2023/09/01 04:09:28;;;;;;;5.75;2.97;;;;;;;8.28;100.00;101156.22;10440578;28;20033;-66
2023/09/01 04:14:29;;;;;;;6.15;3.40;;;;;;;8.28;100.00;101150.75;10424411;28;20041;-66
2023/09/01 04:19:29;;;;;;;8.05;3.78;;;;;;;8.22;100.00;101151.66;10438606;28;20092;-65
2023/09/01 04:24:30;;;;;;;14.32;4.65;;;;;;;8.20;100.00;101153.81;10427591;28;20033;-67
2023/09/01 04:29:31;;;;;;;13.13;4.10;;;;;;;8.15;100.00;101161.91;10436012;28;20057;-66
2023/09/01 04:34:32;;;;;;;9.25;4.25;;;;;;;8.15;100.00;101158.34;10446044;28;21022;-66
2023/09/01 04:39:32;;;;;;;5.88;3.40;;;;;;;8.09;100.00;101162.81;10433123;28;20503;-66
2023/09/01 04:44:33;;;;;;;6.68;3.75;;;;;;;8.04;100.00;101173.63;10433051;28;20041;-66
2023/09/01 04:49:34;;;;;;;6.07;3.60;;;;;;;8.05;100.00;101167.09;10440872;28;20041;-67
2023/09/01 04:54:35;;;;;;;9.85;3.92;;;;;;;8.07;100.00;101164.97;10439462;28;20052;-67
2023/09/01 04:59:35;;;;;;;7.80;4.22;;;;;;;8.09;100.00;101171.06;10442351;28;20052;-66
2023/09/01 05:04:36;;;;;;;10.32;3.67;;;;;;;8.10;100.00;101178.19;10440108;28;20069;-66
2023/09/01 05:09:36;;;;;;;11.27;4.43;;;;;;;8.12;100.00;101173.31;10438564;28;20110;-67
2023/09/01 05:14:37;;;;;;;7.50;3.38;;;;;;;8.20;100.00;101181.22;10439976;28;20107;-66
2023/09/01 05:19:37;;;;;;;6.07;3.40;;;;;;;8.34;100.00;101192.88;10419258;28;20076;-66
2023/09/01 05:24:39;;;;;;;13.75;4.40;;;;;;;8.47;100.00;101191.88;10442479;28;20052;-67
2023/09/01 05:29:39;;;;;;;12.05;4.32;;;;;;;8.61;100.00;101196.09;10421040;28;20142;-66
2023/09/01 05:34:40;;;;;;;6.90;3.50;;;;;;;8.76;100.00;101200.34;10442302;28;20057;-66
2023/09/01 05:39:41;;;;;;;8.60;4.78;;;;;;;8.83;100.00;101190.09;10435214;28;20549;-67
2023/09/01 05:44:41;;;;;;;9.18;4.25;;;;;;;8.97;100.00;101204.44;10407375;28;20052;-66
2023/09/01 05:49:42;;;;;;;6.78;4.45;;;;;;;9.09;100.00;101206.16;10415421;28;20040;-65
2023/09/01 05:54:42;;;;;;;8.52;4.50;;;;;;;9.20;100.00;101206.38;10436740;28;22640;-66
2023/09/01 05:59:42;;;;;;;8.25;4.43;;;;;;;9.43;100.00;101216.59;10439443;28;20041;-66
2023/09/01 06:04:43;;;;;;;8.48;4.82;;;;;;;9.64;100.00;101204.16;10438926;28;20041;-66
2023/09/01 06:09:43;;;;;;;11.50;5.75;;;;;;;9.93;100.00;101210.56;10451153;28;20068;-67
2023/09/01 06:14:44;;;;;;;14.23;6.65;;;;;;;10.22;100.00;101210.63;10435284;28;20044;-66
2023/09/01 06:19:44;;;;;;;15.63;7.47;;;;;;;10.47;100.00;101215.81;10436769;28;20033;-67
2023/09/01 06:24:45;;;;;;;14.75;8.07;;;;;;;10.77;100.00;101223.84;10420413;28;20037;-66
2023/09/01 06:29:45;;;;;;;14.18;7.35;;;;;;;11.05;100.00;101228.47;10435468;28;20504;-65
2023/09/01 06:34:46;;;;;;;11.13;6.30;;;;;;;11.30;100.00;101224.47;10454356;28;20052;-67
2023/09/01 06:39:47;;;;;;;9.52;5.80;;;;;;;11.50;100.00;101227.56;10431727;28;20040;-66
2023/09/01 06:44:47;;;;;;;9.68;6.57;;;;;;;11.70;100.00;101226.22;10421168;28;20044;-66
2023/09/01 06:49:48;;;;;;;12.15;5.35;;;;;;;11.76;100.00;101189.34;10430587;28;20063;-66
2023/09/01 06:54:50;;;;;;;7.70;4.53;;;;;;;12.38;100.00;101239.81;10431656;28;20335;-66
2023/09/01 06:59:50;;;;;;;7.32;5.05;;;;;;;12.75;100.00;101239.13;10440149;28;20049;-66
2023/09/01 07:04:51;;;;;;;7.30;4.90;;;;;;;13.04;100.00;101246.09;10437396;28;20132;-66
2023/09/01 07:09:51;;;;;;;7.40;4.35;;;;;;;13.21;100.00;101243.19;10433939;28;20052;-66
2023/09/01 07:14:52;;;;;;;12.98;4.80;;;;;;;13.45;100.00;101251.16;10436148;28;20119;-66
2023/09/01 07:19:52;;;;;;;9.20;4.63;;;;;;;13.55;100.00;101245.72;10438827;28;20417;-66
2023/09/01 07:24:53;;;;;;;6.40;3.40;;;;;;;13.65;100.00;101242.19;10453988;28;20559;-65
2023/09/01 07:29:54;;;;;;;7.95;2.90;;;;;;;13.90;100.00;101247.06;10442032;28;20719;-65
2023/09/01 07:34:54;;;;;;;5.68;3.72;;;;;;;14.08;100.00;101245.78;10439662;28;20053;-66
2023/09/01 07:39:54;;;;;;;3.78;2.75;;;;;;;14.31;100.00;101253.63;10440476;28;20037;-66
2023/09/01 07:44:55;;;;;;;6.40;2.92;;;;;;;14.43;100.00;101255.34;10440504;28;20053;-67
2023/09/01 07:49:55;;;;;;;7.07;3.25;;;;;;;14.59;100.00;101262.63;10426048;28;20048;-66
2023/09/01 07:54:56;;;;;;;5.95;2.85;;;;;;;14.84;100.00;101252.72;10418007;28;20100;-66
2023/09/01 07:59:56;;;;;;;7.00;3.08;;;;;;;15.07;100.00;101259.72;10421170;28;20025;-66
2023/09/01 08:04:57;;;;;;;4.38;2.58;;;;;;;15.35;100.00;101274.97;10417895;28;20033;-66
2023/09/01 08:09:57;;;;;;;5.25;3.95;;;;;;;15.63;100.00;101261.69;10430831;28;20041;-67
2023/09/01 08:14:58;;;;;;;6.15;2.72;;;;;;;15.90;100.00;101253.88;10436000;28;20037;-66
2023/09/01 08:19:58;;;;;;;6.47;2.47;;;;;;;16.05;100.00;101260.50;10432902;28;20034;-67
2023/09/01 08:24:59;;;;;;;4.18;1.95;;;;;;;16.19;100.00;101260.75;10418737;28;20099;-65
2023/09/01 08:30:00;;;;;;;3.97;2.00;;;;;;;16.40;100.00;101254.00;10411208;28;20045;-66
2023/09/01 08:35:02;;;;;;;4.70;2.00;;;;;;;16.64;100.00;101256.97;10429350;28;20049;-66
2023/09/01 08:40:05;;;;;;;3.53;1.40;;;;;;;16.83;100.00;101253.56;10442027;28;20060;-66
2023/09/01 08:45:06;;;;;;;5.80;1.60;;;;;;;17.12;100.00;101256.41;10438858;28;20037;-66
2023/09/01 08:50:07;;;;;;;6.38;1.65;;;;;;;17.43;100.00;101256.19;10426020;28;20149;-66
2023/09/01 08:55:07;;;;;;;1.83;0.90;;;;;;;17.69;100.00;101248.41;10425895;28;20041;-66
2023/09/01 09:00:08;;;;;;;5.88;1.25;;;;;;;17.68;100.00;101242.03;10422293;28;20041;-67
2023/09/01 09:05:10;;;;;;;2.35;1.10;;;;;;;17.74;100.00;101256.72;10415242;28;20053;-67
2023/09/01 09:10:10;;;;;;;1.98;0.57;;;;;;;17.79;100.00;101259.44;10419453;28;20041;-67
2023/09/01 09:15:15;;;;;;;3.40;0.85;;;;;;;17.84;100.00;101251.09;10423826;28;20056;-67
2023/09/01 09:20:17;;;;;;;2.17;0.80;;;;;;;17.93;100.00;101260.44;10426134;28;20036;-66
2023/09/01 09:25:25;;;;;;;5.20;1.20;;;;;;;18.11;100.00;101261.66;10441747;28;20061;-67
2023/09/01 09:30:26;;;;;;;3.60;1.00;;;;;;;18.24;100.00;101248.16;10425071;28;20054;-66
2023/09/01 09:35:26;;;;;;;3.38;0.98;;;;;;;18.47;100.00;101254.81;10440957;28;20085;-66
2023/09/01 09:40:27;;;;;;;2.58;0.90;;;;;;;18.68;100.00;101245.03;10438198;28;20473;-67
2023/09/01 09:45:37;;;;;;;3.45;1.63;;;;;;;18.55;100.00;101251.38;10418295;28;20084;-67
2023/09/01 09:50:37;;;;;;;2.08;0.70;;;;;;;18.65;100.00;101247.63;10435217;28;20057;-66
2023/09/01 09:55:44;;;;;;;2.80;1.15;;;;;;;18.67;100.00;101254.56;10421050;28;20045;-66
2023/09/01 10:00:49;;;;;;;3.53;0.90;;;;;;;18.60;100.00;101251.28;10425407;28;20103;-67
2023/09/01 10:05:50;;;;;;;5.38;0.82;;;;;;;18.50;100.00;101259.78;10433326;28;20521;-66
2023/09/01 10:10:51;;;;;;;2.00;1.20;;;;;;;18.54;100.00;101252.50;10437969;28;20041;-67
2023/09/01 10:15:51;;;;;;;2.90;0.60;;;;;;;18.47;100.00;101244.50;10437513;28;20041;-67
2023/09/01 10:20:52;;;;;;;6.97;1.05;;;;;;;18.38;100.00;101259.41;10420246;28;20025;-66
2023/09/01 10:26:11;;;;;;;4.05;1.10;;;;;;;18.38;100.00;101270.56;10435425;28;20041;-66
2023/09/01 10:31:19;;;;;;;2.50;1.20;;;;;;;18.50;100.00;101262.56;10435805;28;20038;-66
2023/09/01 10:36:19;;;;;;;1.92;0.80;;;;;;;18.46;100.00;101272.66;10439096;28;20040;-66
2023/09/01 10:41:51;;;;;;;7.00;1.10;;;;;;;18.40;100.00;101287.78;10433616;28;20055;-66
2023/09/01 10:46:51;;;;;;;2.97;1.17;;;;;;;18.27;100.00;101279.03;10442169;28;20112;-66
2023/09/01 10:52:16;;;;;;;3.42;1.10;;;;;;;18.35;100.00;101278.41;10439879;28;20052;-66
2023/09/01 10:57:17;;;;;;;4.63;1.02;;;;;;;18.66;100.00;101283.56;10418458;28;20052;-67
2023/09/01 11:02:21;;;;;;;3.80;1.33;;;;;;;18.98;100.00;101279.25;10426438;28;20041;-67
2023/09/01 11:07:21;;;;;;;4.68;1.40;;;;;;;19.25;100.00;101267.41;10416599;28;20058;-66
2023/09/01 11:12:26;;;;;;;4.47;1.65;;;;;;;19.54;100.00;101275.59;10411396;28;20045;-66
2023/09/01 11:17:38;;;;;;;4.65;1.95;;;;;;;19.64;100.00;101270.97;10412207;28;20045;-67
2023/09/01 11:22:42;;;;;;;4.40;1.70;;;;;;;19.79;100.00;101259.53;10395858;28;20160;-68
2023/09/01 11:27:47;;;;;;;3.08;1.40;;;;;;;20.49;100.00;101277.19;10417830;28;20041;-67
2023/09/01 11:32:48;;;;;;;6.47;1.57;;;;;;;20.96;100.00;101269.50;10440118;28;20041;-68
2023/09/01 11:37:49;;;;;;;4.28;1.58;;;;;;;21.28;100.00;101260.03;10416822;28;20033;-67
2023/09/01 11:42:49;;;;;;;4.43;2.15;;;;;;;21.11;100.00;101259.91;10429356;28;20033;-68
2023/09/01 11:47:53;;;;;;;5.97;2.72;;;;;;;21.21;100.00;101270.00;10418567;28;20041;-67
2023/09/01 11:52:57;;;;;;;2.42;1.52;;;;;;;21.69;100.00;101261.00;10401850;28;20099;-67
2023/09/01 11:57:57;;;;;;;4.68;1.70;;;;;;;22.13;100.00;101276.06;10402771;28;20041;-67
2023/09/01 12:02:59;;;;;;;4.47;2.28;;;;;;;22.77;100.00;101264.41;10416133;28;20869;-67
2023/09/01 12:08:00;;;;;;;7.80;3.30;;;;;;;23.28;100.00;101267.63;10402030;28;20042;-68
2023/09/01 12:13:11;;;;;;;9.85;3.42;;;;;;;23.97;100.00;101247.00;10428696;28;20048;-68
2023/09/01 12:18:39;;;;;;;4.72;2.13;;;;;;;24.38;100.00;101249.13;10427428;28;20038;-67
2023/09/01 12:23:44;;;;;;;7.00;2.22;;;;;;;25.35;100.00;101249.31;10379237;28;20038;-68
2023/09/01 12:28:45;;;;;;;4.28;2.33;;;;;;;25.70;100.00;101234.88;10376737;28;20045;-65
2023/09/01 12:33:45;;;;;;;5.05;2.60;;;;;;;25.62;99.73;101239.41;10376093;28;20046;-67
2023/09/01 12:38:46;;;;;;;4.47;2.70;;;;;;;24.56;100.00;101261.16;10413621;28;20537;-68
2023/09/01 12:43:46;;;;;;;8.02;2.78;;;;;;;24.21;100.00;101251.22;10425379;28;20038;-67
2023/09/01 12:48:47;;;;;;;5.30;2.35;;;;;;;24.74;100.00;101266.66;10421788;28;20044;-67
2023/09/01 12:53:47;;;;;;;6.18;3.13;;;;;;;25.54;100.00;101260.88;10411733;28;20072;-68
2023/09/01 12:58:47;;;;;;;9.35;3.00;;;;;;;25.33;99.93;101243.19;10420551;28;20044;-68
2023/09/01 13:03:48;;;;;;;5.18;3.53;;;;;;;23.79;100.00;101271.53;10403756;28;20037;-68
2023/09/01 13:08:48;;;;;;;10.63;3.45;;;;;;;23.47;100.00;101270.09;10429768;28;20103;-67
2023/09/01 13:13:49;;;;;;;6.82;4.15;;;;;;;23.64;100.00;101269.22;10425706;28;20046;-67
2023/09/01 13:18:49;;;;;;;7.47;3.20;;;;;;;23.81;100.00;101286.06;10415136;28;20037;-67
2023/09/01 13:23:50;;;;;;;10.60;3.72;;;;;;;23.60;100.00;101262.63;10416014;28;20061;-68
2023/09/01 13:28:50;;;;;;;5.32;3.38;;;;;;;24.91;100.00;101260.09;10421094;28;20044;-67
2023/09/01 13:33:51;;;;;;;9.50;4.30;;;;;;;25.93;97.47;101243.75;10424923;28;20043;-67
2023/09/01 13:38:51;;;;;;;7.53;4.32;;;;;;;26.62;96.78;101250.47;10403181;28;20041;-67
2023/09/01 13:43:52;;;;;;;9.43;3.70;;;;;;;26.63;95.98;101249.31;10400796;28;20030;-67
2023/09/01 13:48:56;;;;;;;5.78;4.22;;;;;;;25.70;96.93;101257.41;10427103;28;20044;-68
2023/09/01 13:53:57;;;;;;;9.02;4.47;;;;;;;25.31;96.07;101262.44;10388881;28;20061;-68
2023/09/01 13:58:57;;;;;;;10.88;5.05;;;;;;;26.04;93.88;101255.38;10392314;28;20097;-67
2023/09/01 14:03:58;;;;;;;7.38;4.00;;;;;;;27.10;93.53;101260.03;10414982;28;20026;-67
2023/09/01 14:09:03;;;;;;;6.43;3.70;;;;;;;26.70;91.46;101255.16;10424219;28;20051;-68
2023/09/01 14:14:04;;;;;;;7.97;4.65;;;;;;;24.76;93.73;101259.53;10443146;28;20109;-67
2023/09/01 14:19:05;;;;;;;7.20;3.78;;;;;;;23.36;100.00;101278.03;10427698;28;20033;-68
2023/09/01 14:24:09;;;;;;;7.63;4.13;;;;;;;23.83;100.00;101272.50;10443459;28;20045;-67
2023/09/01 14:29:10;;;;;;;7.82;3.35;;;;;;;25.16;96.21;101250.59;10436732;28;20037;-67
2023/09/01 14:34:10;;;;;;;5.82;3.05;;;;;;;26.17;94.27;101254.25;10440096;28;20045;-67
2023/09/01 14:39:11;;;;;;;5.43;3.20;;;;;;;27.01;92.45;101259.34;10432236;28;20067;-68
2023/09/01 14:44:11;;;;;;;7.15;3.55;;;;;;;27.37;89.25;101261.25;10437633;28;20230;-67
2023/09/01 14:49:11;;;;;;;6.05;3.38;;;;;;;27.70;84.53;101250.84;10435187;28;20037;-66
2023/09/01 14:54:12;;;;;;;5.28;2.95;;;;;;;27.89;84.69;101250.19;10439988;28;20404;-67
2023/09/01 14:59:13;;;;;;;6.28;3.00;;;;;;;27.48;85.73;101255.91;10436830;28;20484;-67
2023/09/01 15:04:14;;;;;;;5.65;3.22;;;;;;;27.44;86.09;101248.50;10433408;28;20507;-68
2023/09/01 15:09:15;;;;;;;5.95;3.70;;;;;;;26.99;85.82;101264.53;10433420;28;20088;-67
2023/09/01 15:14:18;;;;;;;7.47;3.58;;;;;;;26.57;86.52;101262.03;10420053;28;20075;-68
2023/09/01 15:19:18;;;;;;;7.25;3.42;;;;;;;26.26;87.99;101251.31;10430589;28;20040;-67
2023/09/01 15:24:19;;;;;;;6.03;3.10;;;;;;;26.25;88.18;101263.75;10432833;28;20033;-67
2023/09/01 15:29:19;;;;;;;7.90;3.83;;;;;;;25.92;87.42;101267.47;10438632;28;20052;-67
2023/09/01 15:34:20;;;;;;;6.03;3.90;;;;;;;25.61;90.37;101270.75;10431267;28;20064;-67
2023/09/01 15:39:21;;;;;;;7.20;3.38;;;;;;;25.14;91.54;101252.94;10416818;28;20061;-68
2023/09/01 15:44:21;;;;;;;6.03;3.20;;;;;;;25.16;89.45;101278.78;10398565;28;20045;-67
2023/09/01 15:49:22;;;;;;;6.07;3.25;;;;;;;24.49;92.70;101294.63;10405941;28;20048;-70
2023/09/01 15:54:22;;;;;;;6.55;3.17;;;;;;;23.05;98.47;101303.44;10412839;28;20041;-67
2023/09/01 15:59:23;;;;;;;6.93;4.07;;;;;;;22.00;100.00;101319.06;10399581;28;20037;-67
2023/09/01 16:04:23;;;;;;;7.50;3.58;;;;;;;21.20;100.00;101313.16;10397648;28;20538;-67
2023/09/01 16:09:24;;;;;;;7.30;3.45;;;;;;;20.96;100.00;101339.47;10396612;28;20045;-68
2023/09/01 16:14:24;;;;;;;9.02;3.97;;;;;;;20.73;100.00;101331.00;10393948;28;20057;-67
2023/09/01 16:19:25;;;;;;;6.20;3.28;;;;;;;20.64;100.00;101344.03;10397156;28;20053;-67
2023/09/01 16:24:26;;;;;;;5.57;3.70;;;;;;;20.55;100.00;101348.69;10397872;28;20068;-66
2023/09/01 16:29:26;;;;;;;12.90;4.30;;;;;;;20.39;100.00;101327.75;10397041;28;20049;-66
2023/09/01 16:34:27;;;;;;;7.55;3.47;;;;;;;20.22;100.00;101348.75;10393979;28;20171;-66
2023/09/01 16:39:27;;;;;;;5.28;3.33;;;;;;;19.80;100.00;101324.63;10390406;28;20642;-66
2023/09/01 16:44:28;;;;;;;6.90;3.95;;;;;;;19.80;100.00;101350.59;10373712;28;20045;-66
2023/09/01 16:49:30;;;;;;;12.25;3.47;;;;;;;19.46;100.00;101340.50;10395875;28;20038;-66
2023/09/01 16:54:30;;;;;;;12.40;5.22;;;;;;;19.66;100.00;101360.88;10393936;28;20053;-67
2023/09/01 16:59:30;;;;;;;8.20;3.40;;;;;;;19.61;100.00;101369.31;10410686;28;20037;-67
2023/09/01 17:04:31;;;;;;;7.65;3.55;;;;;;;19.50;100.00;101380.66;10430823;28;20587;-67
2023/09/01 17:09:32;;;;;;;6.25;3.90;;;;;;;19.41;100.00;101388.06;10443260;28;20037;-66
2023/09/01 17:14:32;;;;;;;7.60;3.60;;;;;;;19.27;100.00;101395.53;10438614;28;20581;-67
2023/09/01 17:19:33;;;;;;;8.93;3.47;;;;;;;19.08;100.00;101401.06;10440196;28;20049;-66
2023/09/01 17:24:33;;;;;;;9.65;3.72;;;;;;;18.86;100.00;101405.25;10442039;28;20049;-66
2023/09/01 17:29:35;;;;;;;6.07;3.83;;;;;;;18.64;100.00;101413.28;10440814;28;20033;-65
2023/09/01 17:34:36;;;;;;;6.03;4.38;;;;;;;18.35;100.00;101411.34;10439906;28;20037;-67
2023/09/01 17:39:38;;;;;;;8.45;3.60;;;;;;;18.06;100.00;101408.53;10436498;28;20048;-65
2023/09/01 17:44:40;;;;;;;5.75;3.90;;;;;;;17.79;100.00;101409.84;10435911;28;20053;-67
2023/09/01 17:49:40;;;;;;;6.20;4.07;;;;;;;17.54;100.00;101420.03;10421576;28;20041;-66
2023/09/01 17:54:41;;;;;;;8.63;4.15;;;;;;;17.45;100.00;101427.34;10441789;28;20041;-66
2023/09/01 17:59:41;;;;;;;7.85;3.88;;;;;;;17.34;100.00;101442.41;10427648;28;20052;-67
2023/09/01 18:04:42;;;;;;;6.40;3.88;;;;;;;17.19;100.00;101423.03;10437616;28;20048;-67
2023/09/01 18:09:42;;;;;;;10.80;5.03;;;;;;;17.08;100.00;101442.53;10421339;28;20112;-66
2023/09/01 18:14:43;;;;;;;9.32;4.80;;;;;;;17.01;100.00;101450.38;10419569;28;20037;-66
2023/09/01 18:19:43;;;;;;;10.70;4.63;;;;;;;16.78;100.00;101446.22;10435613;28;20052;-67
2023/09/01 18:24:44;;;;;;;11.50;4.57;;;;;;;16.76;100.00;101476.25;10403536;28;20065;-66
2023/09/01 18:29:44;;;;;;;6.85;4.70;;;;;;;16.65;100.00;101481.00;10438475;28;20052;-66
2023/09/01 18:34:45;;;;;;;8.50;4.07;;;;;;;16.53;100.00;101488.81;10438892;28;20045;-66
2023/09/01 18:39:46;;;;;;;7.22;4.40;;;;;;;16.43;100.00;101502.69;10438155;28;20033;-66
2023/09/01 18:44:46;;;;;;;9.18;5.47;;;;;;;16.30;100.00;101502.16;10403015;28;20037;-67
2023/09/01 18:49:50;;;;;;;10.52;5.18;;;;;;;16.12;100.00;101503.53;10420300;28;20029;-66
2023/09/01 18:54:50;;;;;;;8.48;5.47;;;;;;;15.95;100.00;101508.50;10418447;28;20136;-66
2023/09/01 18:59:57;;;;;;;11.23;5.47;;;;;;;15.83;100.00;101516.25;10438670;28;20041;-66
2023/09/01 19:04:58;;;;;;;10.23;4.85;;;;;;;15.70;100.00;101520.34;10424403;28;20124;-66
2023/09/01 19:09:59;;;;;;;7.32;4.30;;;;;;;15.45;100.00;101496.13;10417325;28;20036;-66
2023/09/01 19:15:00;;;;;;;3.88;2.75;;;;;;;15.58;100.00;101528.09;10436656;28;20041;-66
2023/09/01 19:20:03;;;;;;;5.20;2.47;;;;;;;15.55;100.00;101546.13;10420405;28;20052;-66
2023/09/01 19:25:06;;;;;;;6.03;2.50;;;;;;;15.55;100.00;101546.13;10433932;28;20045;-66
2023/09/01 19:30:07;;;;;;;3.35;2.38;;;;;;;15.52;100.00;101541.09;10418360;28;20037;-67
2023/09/01 19:35:11;;;;;;;4.18;2.03;;;;;;;15.52;100.00;101553.06;10437548;28;20046;-67
2023/09/01 19:40:11;;;;;;;4.35;2.10;;;;;;;15.51;100.00;101545.00;10439545;28;20469;-66
2023/09/01 19:45:26;;;;;;;2.83;1.80;;;;;;;15.31;100.00;101526.31;10434055;28;20041;-66
2023/09/01 19:50:26;;;;;;;3.35;2.00;;;;;;;15.25;100.00;101541.25;10437102;28;20037;-66
2023/09/01 19:55:27;;;;;;;4.50;1.45;;;;;;;15.19;100.00;101554.25;10437525;28;20243;-67
2023/09/01 20:00:29;;;;;;;3.22;1.80;;;;;;;15.00;100.00;101551.09;10440991;28;20046;-67
2023/09/01 20:05:29;;;;;;;2.88;1.73;;;;;;;14.92;100.00;101557.16;10428848;28;20045;-67
2023/09/01 20:10:32;;;;;;;3.17;1.77;;;;;;;14.81;100.00;101564.56;10415076;28;20065;-67
2023/09/01 20:15:37;;;;;;;4.25;1.63;;;;;;;14.66;100.00;101581.91;10439795;28;20041;-67
2023/09/01 20:20:37;;;;;;;2.60;1.52;;;;;;;14.52;100.00;101591.72;10435818;28;20037;-67
2023/09/01 20:25:38;;;;;;;2.88;1.92;;;;;;;14.37;100.00;101605.47;10417764;28;20048;-67
2023/09/01 20:30:39;;;;;;;4.72;1.83;;;;;;;14.21;100.00;101605.28;10441998;28;20121;-67
2023/09/01 20:35:40;;;;;;;4.65;1.83;;;;;;;14.10;100.00;101614.59;10471169;28;20044;-67
2023/09/01 20:40:40;;;;;;;2.83;1.70;;;;;;;13.99;100.00;101624.69;10438083;28;20048;-66
2023/09/01 20:45:42;;;;;;;5.32;1.80;;;;;;;13.61;100.00;101582.19;10429823;28;20111;-67
2023/09/01 20:50:42;;;;;;;3.72;2.47;;;;;;;13.79;100.00;101625.31;10445879;28;20263;-68
2023/09/01 20:55:42;;;;;;;2.72;1.63;;;;;;;13.69;100.00;101641.78;10441757;28;20042;-68
2023/09/01 21:00:43;;;;;;;6.63;2.53;;;;;;;13.60;100.00;101629.47;10442506;28;20476;-69
2023/09/01 21:05:43;;;;;;;5.45;2.22;;;;;;;13.54;100.00;101631.34;10443649;28;20037;-68
2023/09/01 21:10:44;;;;;;;5.90;3.00;;;;;;;13.38;100.00;101619.22;10445614;28;20037;-67
2023/09/01 21:15:46;;;;;;;4.70;2.15;;;;;;;13.38;100.00;101640.50;10441086;28;20079;-68
2023/09/01 21:20:46;;;;;;;6.85;3.53;;;;;;;13.30;100.00;101637.06;10448128;28;20045;-68
2023/09/01 21:25:47;;;;;;;5.70;2.67;;;;;;;13.25;100.00;101652.72;10442880;28;20044;-68
2023/09/01 21:30:50;;;;;;;5.80;3.47;;;;;;;13.19;100.00;101648.19;10440038;28;20040;-69
2023/09/01 21:35:50;;;;;;;6.82;4.00;;;;;;;13.16;100.00;101652.31;10440523;28;20101;-68
2023/09/01 21:40:51;;;;;;;7.20;4.45;;;;;;;13.13;100.00;101656.44;10440699;28;20037;-68
2023/09/01 21:45:51;;;;;;;5.55;3.72;;;;;;;13.08;100.00;101661.88;10445429;28;20045;-68
2023/09/01 21:50:52;;;;;;;7.78;3.95;;;;;;;13.04;100.00;101652.41;10438229;28;20052;-68
2023/09/01 21:55:52;;;;;;;6.95;3.83;;;;;;;12.97;100.00;101662.78;10432675;28;20037;-68
2023/09/01 22:00:53;;;;;;;7.85;4.55;;;;;;;12.91;100.00;101663.78;10438951;28;20037;-69
2023/09/01 22:05:53;;;;;;;8.95;4.25;;;;;;;12.84;100.00;101671.44;10432036;28;20044;-68
2023/09/01 22:10:54;;;;;;;5.88;4.03;;;;;;;12.77;100.00;101684.56;10437512;28;20045;-68
2023/09/01 22:15:54;;;;;;;6.85;4.18;;;;;;;12.73;100.00;101689.72;10440924;28;20038;-67
2023/09/01 22:20:54;;;;;;;7.28;3.58;;;;;;;12.69;100.00;101686.66;10442846;28;20052;-67
2023/09/01 22:25:55;;;;;;;8.82;5.18;;;;;;;12.60;100.00;101676.25;10446543;28;20037;-68
2023/09/01 22:30:55;;;;;;;9.73;4.90;;;;;;;12.56;100.00;101688.88;10429984;28;20461;-68
2023/09/01 22:35:56;;;;;;;9.20;4.32;;;;;;;12.49;100.00;101683.50;10441382;28;20094;-68
2023/09/01 22:40:59;;;;;;;5.75;4.50;;;;;;;12.43;100.00;101690.03;10439108;28;20033;-68
2023/09/01 22:46:00;;;;;;;7.85;3.85;;;;;;;12.38;100.00;101689.91;10441584;28;20041;-67
2023/09/01 22:51:00;;;;;;;8.07;4.30;;;;;;;12.31;100.00;101696.41;10441505;28;20049;-69
2023/09/01 22:56:01;;;;;;;8.57;4.22;;;;;;;12.26;100.00;101699.09;10439493;28;20067;-68